createdAt,value
2019-03-21T00:00:00.362Z,4.20
2019-03-21T00:02:32.174Z,3.60
2019-03-21T00:05:17.971Z,3.37
2019-03-21T00:08:09.127Z,4.57
2019-03-21T00:11:15.386Z,4.03
2019-03-21T00:13:46.959Z,3.90
2019-03-21T00:16:18.610Z,4.27
2019-03-21T00:19:08.435Z,4.10
2019-03-21T00:21:39.913Z,4.03
2019-03-21T00:24:11.403Z,3.63
2019-03-21T00:27:01.568Z,4.37
2019-03-21T00:29:51.697Z,4.20
2019-03-21T00:32:22.919Z,4.63
2019-03-21T00:35:13.026Z,4.23
2019-03-21T00:38:02.906Z,4.23
2019-03-21T00:40:36.500Z,4.37
2019-03-21T00:43:10.334Z,4.60
2019-03-21T00:46:00.181Z,4.50
2019-03-21T00:48:31.922Z,4.43
2019-03-21T00:51:21.747Z,3.90
2019-03-21T00:54:11.603Z,4.00
2019-03-21T00:56:43.172Z,4.67
2019-03-21T00:59:15.686Z,3.97
2019-03-21T01:01:46.915Z,4.07
2019-03-21T01:04:18.395Z,4.23
2019-03-21T01:06:49.854Z,4.43
2019-03-21T01:09:21.258Z,4.50
2019-03-21T01:11:52.760Z,4.00
2019-03-21T01:14:29.718Z,3.80
2019-03-21T01:17:15.746Z,4.30
2019-03-21T01:20:06.645Z,4.23
2019-03-21T01:22:57.361Z,4.00
2019-03-21T01:25:32.489Z,3.43
2019-03-21T01:28:26.550Z,4.20
2019-03-21T01:30:57.785Z,3.70
2019-03-21T01:33:29.261Z,3.77
2019-03-21T01:36:19.912Z,4.50
2019-03-21T01:39:10.033Z,4.53
2019-03-21T01:42:00.160Z,4.30
2019-03-21T01:44:40.602Z,3.70
2019-03-21T01:47:23.091Z,3.60
2019-03-21T01:49:54.411Z,3.40
2019-03-21T01:52:44.913Z,4.40
2019-03-21T01:55:26.551Z,4.10
2019-03-21T01:57:58.525Z,4.53
2019-03-21T02:00:48.807Z,4.23
2019-03-21T02:03:20.033Z,4.67
2019-03-21T02:05:51.269Z,4.83
2019-03-21T02:08:41.178Z,3.30
2019-03-21T02:11:31.022Z,4.40
2019-03-21T02:14:22.111Z,3.80
2019-03-21T02:16:53.450Z,4.43
2019-03-21T02:22:02.897Z,4.77
2019-03-21T02:25:30.411Z,4.60
2019-03-21T02:28:20.265Z,4.13
2019-03-21T02:31:10.447Z,4.63
2019-03-21T02:33:41.985Z,4.60
2019-03-21T02:36:32.212Z,4.03
2019-03-21T02:39:22.041Z,4.13
2019-03-21T02:41:55.955Z,3.90
2019-03-21T02:44:46.650Z,4.63
2019-03-21T02:47:19.119Z,5.27
2019-03-21T02:49:50.376Z,5.00
2019-03-21T02:52:41.559Z,4.73
2019-03-21T02:55:31.401Z,5.37
2019-03-21T02:58:13.397Z,5.17
2019-03-21T03:00:55.166Z,4.57
2019-03-21T03:03:26.770Z,4.33
2019-03-21T03:06:00.446Z,5.00
2019-03-21T03:08:31.943Z,5.03
2019-03-21T03:11:03.640Z,4.93
2019-03-21T03:13:34.827Z,4.60
2019-03-21T03:16:06.071Z,5.33
2019-03-21T03:18:55.862Z,6.03
2019-03-21T03:21:45.707Z,4.37
2019-03-21T03:24:36.374Z,4.53
2019-03-21T03:27:26.224Z,4.40
2019-03-21T03:29:57.829Z,4.47
2019-03-21T03:32:48.029Z,4.60
2019-03-21T03:35:37.872Z,4.10
2019-03-21T03:38:27.672Z,4.67
2019-03-21T03:41:00.366Z,4.10
2019-03-21T03:43:31.693Z,4.10
2019-03-21T03:46:03.334Z,4.20
2019-03-21T03:48:53.403Z,5.00
2019-03-21T03:51:43.581Z,4.40
2019-03-21T03:54:34.256Z,4.10
2019-03-21T03:57:15.975Z,3.90
2019-03-21T04:02:24.856Z,4.27
2019-03-21T04:05:16.715Z,4.27
2019-03-21T04:08:08.230Z,5.27
2019-03-21T04:10:50.055Z,4.13
2019-03-21T04:13:21.892Z,5.07
2019-03-21T04:16:12.117Z,3.27
2019-03-21T04:18:43.306Z,4.30
2019-03-21T04:21:33.397Z,4.63
2019-03-21T04:24:22.418Z,4.30
2019-03-21T04:26:53.839Z,4.20
2019-03-21T04:29:25.469Z,4.53
2019-03-21T04:31:56.784Z,4.57
2019-03-21T04:34:27.955Z,4.33
2019-03-21T04:36:59.753Z,4.70
2019-03-21T04:39:49.610Z,5.20
2019-03-21T04:42:39.476Z,4.20
2019-03-21T04:45:29.691Z,4.47
2019-03-21T04:48:00.917Z,4.60
2019-03-21T04:50:51.173Z,4.20
2019-03-21T04:53:33.431Z,4.40
2019-03-21T04:56:15.270Z,4.00
2019-03-21T04:58:46.464Z,4.37
2019-03-21T05:01:17.695Z,4.37
2019-03-21T05:04:07.904Z,4.53
2019-03-21T05:06:57.754Z,4.63
2019-03-21T05:09:47.560Z,4.40
2019-03-21T05:12:37.390Z,4.93
2019-03-21T05:15:11.738Z,4.33
2019-03-21T05:18:03.580Z,4.20
2019-03-21T05:20:53.963Z,4.30
2019-03-21T05:23:25.418Z,4.57
2019-03-21T05:25:56.707Z,4.67
2019-03-21T05:28:46.967Z,4.40
2019-03-21T05:31:36.954Z,3.87
2019-03-21T05:34:26.763Z,4.30
2019-03-21T05:36:57.972Z,4.63
2019-03-21T05:39:52.165Z,4.80
2019-03-21T05:42:25.807Z,5.30
2019-03-21T05:45:15.767Z,5.57
2019-03-21T05:48:05.853Z,5.23
2019-03-21T05:50:37.860Z,4.63
2019-03-21T05:53:21.957Z,4.90
2019-03-21T05:56:04.320Z,4.83
2019-03-21T05:58:36.145Z,4.67
2019-03-21T06:01:26.245Z,4.30
2019-03-21T06:04:16.168Z,4.57
2019-03-21T06:07:09.123Z,4.20
2019-03-21T06:09:59.166Z,4.63
2019-03-21T06:12:49.646Z,5.10
2019-03-21T06:15:39.744Z,5.00
2019-03-21T06:18:32.837Z,4.20
2019-03-21T06:22:04.240Z,4.50
2019-03-21T06:24:30.827Z,4.73
2019-03-21T06:27:39.207Z,5.10
2019-03-21T06:30:29.116Z,4.20
2019-03-21T06:33:00.689Z,4.60
2019-03-21T06:35:31.852Z,4.57
2019-03-21T06:38:04.787Z,4.37
2019-03-21T06:40:36.527Z,4.57
2019-03-21T06:43:26.582Z,3.83
2019-03-21T06:46:16.464Z,4.80
2019-03-21T06:52:17.328Z,5.80
2019-03-21T06:55:05.078Z,4.73
2019-03-21T06:57:55.171Z,4.53
2019-03-21T07:00:26.496Z,4.80
2019-03-21T07:02:59.602Z,5.40
2019-03-21T07:05:49.473Z,5.03
2019-03-21T07:08:20.719Z,4.93
2019-03-21T07:10:52.256Z,5.47
2019-03-21T07:13:23.591Z,4.73
2019-03-21T07:16:06.092Z,5.37
2019-03-21T07:18:37.385Z,5.20
2019-03-21T07:21:09.369Z,4.90
2019-03-21T07:24:00.338Z,5.23
2019-03-21T07:26:32.221Z,5.30
2019-03-21T07:29:22.074Z,5.47
2019-03-21T07:31:53.287Z,5.60
2019-03-21T07:34:24.827Z,6.40
2019-03-21T07:37:14.706Z,5.70
2019-03-21T07:39:46.031Z,6.00
2019-03-21T07:42:36.146Z,6.33
2019-03-21T07:45:07.850Z,5.70
2019-03-21T07:47:39.450Z,5.33
2019-03-21T07:50:11.999Z,5.90
2019-03-21T07:53:02.202Z,5.93
2019-03-21T07:55:51.988Z,4.70
2019-03-21T07:58:41.834Z,5.43
2019-03-21T08:01:31.716Z,5.57
2019-03-21T08:04:21.996Z,5.43
2019-03-21T08:07:12.138Z,4.83
2019-03-21T08:09:43.491Z,5.23
2019-03-21T08:12:33.417Z,4.73
2019-03-21T08:15:05.401Z,5.57
2019-03-21T08:17:55.300Z,4.90
2019-03-21T08:20:26.651Z,4.90
2019-03-21T08:23:16.634Z,4.60
2019-03-21T08:26:06.593Z,5.10
2019-03-21T08:28:37.757Z,5.00
2019-03-21T08:31:27.699Z,5.57
2019-03-21T08:34:17.574Z,4.53
2019-03-21T08:37:07.466Z,5.17
2019-03-21T08:39:57.908Z,5.43
2019-03-21T08:42:47.820Z,6.00
2019-03-21T08:45:37.668Z,4.87
2019-03-21T08:48:27.525Z,5.93
2019-03-21T08:51:07.746Z,5.17
2019-03-21T08:53:50.514Z,5.17
2019-03-21T08:56:40.368Z,5.07
2019-03-21T08:59:11.604Z,4.60
2019-03-21T09:02:01.487Z,5.30
2019-03-21T09:04:43.563Z,5.00
2019-03-21T09:07:25.653Z,4.87
2019-03-21T09:10:07.996Z,5.00
2019-03-21T09:12:58.159Z,4.40
2019-03-21T09:15:29.511Z,4.70
2019-03-21T09:18:19.516Z,4.37
2019-03-21T09:20:51.288Z,5.23
2019-03-21T09:23:22.813Z,4.90
2019-03-21T09:26:12.874Z,4.53
2019-03-21T09:29:02.962Z,4.97
2019-03-21T09:31:34.537Z,4.93
2019-03-21T09:34:24.384Z,4.70
2019-03-21T09:37:14.309Z,4.30
2019-03-21T09:40:04.546Z,4.80
2019-03-21T09:42:55.422Z,3.53
2019-03-21T09:45:28.078Z,4.47
2019-03-21T09:47:59.876Z,4.60
2019-03-21T09:50:49.759Z,4.13
2019-03-21T09:53:40.517Z,5.07
2019-03-21T09:56:30.455Z,4.03
2019-03-21T09:59:01.718Z,4.23
2019-03-21T10:01:51.648Z,4.63
2019-03-21T10:04:33.353Z,4.27
2019-03-21T10:07:15.423Z,4.77
2019-03-21T10:09:57.376Z,4.23
2019-03-21T10:12:39.351Z,3.97
2019-03-21T10:15:29.595Z,4.53
2019-03-21T10:18:19.566Z,4.57
2019-03-21T10:21:09.549Z,4.47
2019-03-21T10:23:40.885Z,4.80
2019-03-21T10:26:30.814Z,4.40
2019-03-21T10:29:20.701Z,3.80
2019-03-21T10:32:14.438Z,3.97
2019-03-21T10:35:03.286Z,3.90
2019-03-21T10:37:53.219Z,4.10
2019-03-21T10:40:43.155Z,3.67
2019-03-21T10:43:32.982Z,3.30
2019-03-21T10:46:22.950Z,3.50
2019-03-21T10:49:12.782Z,3.97
2019-03-21T10:52:02.641Z,4.20
2019-03-21T10:54:52.649Z,3.40
2019-03-21T10:57:42.723Z,4.07
2019-03-21T11:00:32.497Z,3.63
2019-03-21T11:03:08.807Z,3.97
2019-03-21T11:05:58.692Z,3.70
2019-03-21T11:08:41.049Z,3.50
2019-03-21T11:11:23.132Z,4.00
2019-03-21T11:14:04.869Z,3.70
2019-03-21T11:16:45.714Z,3.27
2019-03-21T11:19:17.294Z,3.67
2019-03-21T11:22:07.295Z,3.37
2019-03-21T11:24:57.252Z,3.70
2019-03-21T11:27:29.082Z,3.80
2019-03-21T11:30:39.085Z,3.63
2019-03-21T11:33:11.169Z,3.53
2019-03-21T11:35:42.775Z,3.10
2019-03-21T11:38:14.901Z,3.60
2019-03-21T11:41:04.924Z,3.30
2019-03-21T11:43:36.413Z,3.90
2019-03-21T11:46:09.075Z,3.17
2019-03-21T11:48:58.991Z,3.17
2019-03-21T11:52:17.770Z,3.30
2019-03-21T11:58:22.204Z,2.93
2019-03-21T12:01:13.278Z,2.60
2019-03-21T12:04:04.272Z,3.00
2019-03-21T12:06:54.983Z,3.40
2019-03-21T12:09:31.854Z,3.23
2019-03-21T12:12:22.746Z,2.80
2019-03-21T12:14:58.056Z,2.50
2019-03-21T12:17:48.694Z,2.33
2019-03-21T12:20:33.191Z,2.77
2019-03-21T12:23:05.722Z,2.90
2019-03-21T12:25:57.738Z,2.80
2019-03-21T12:28:30.138Z,2.60
2019-03-21T12:31:20.351Z,2.67
2019-03-21T12:34:35.758Z,2.70
2019-03-21T12:37:26.158Z,2.93
2019-03-21T12:40:16.298Z,2.60
2019-03-21T12:43:06.532Z,2.70
2019-03-21T12:45:56.401Z,2.60
2019-03-21T12:48:46.343Z,2.27
2019-03-21T12:51:36.620Z,2.50
2019-03-21T12:54:27.371Z,2.93
2019-03-21T12:57:17.347Z,3.13
2019-03-21T12:59:59.044Z,2.60
2019-03-21T13:02:32.144Z,2.57
2019-03-21T13:05:04.218Z,2.60
2019-03-21T13:07:35.534Z,3.10
2019-03-21T13:10:14.413Z,3.10
2019-03-21T13:13:04.516Z,2.50
2019-03-21T13:15:38.634Z,2.47
2019-03-21T13:18:20.460Z,2.70
2019-03-21T13:20:51.896Z,2.80
2019-03-21T13:23:23.485Z,2.80
2019-03-21T13:26:13.363Z,2.70
2019-03-21T13:29:03.191Z,3.00
2019-03-21T13:31:35.163Z,3.10
2019-03-21T13:34:24.984Z,3.37
2019-03-21T13:36:57.767Z,2.87
2019-03-21T13:39:47.606Z,2.77
2019-03-21T13:42:19.638Z,3.27
2019-03-21T13:45:09.747Z,3.37
2019-03-21T13:47:59.761Z,3.93
2019-03-21T13:50:31.137Z,3.20
2019-03-21T13:53:20.994Z,3.70
2019-03-21T13:55:55.076Z,3.10
2019-03-21T13:58:26.703Z,3.60
2019-03-21T14:00:58.475Z,3.90
2019-03-21T14:03:48.607Z,3.37
2019-03-21T14:06:20.632Z,3.57
2019-03-21T14:08:51.910Z,3.50
2019-03-21T14:11:42.046Z,3.30
2019-03-21T14:14:13.260Z,3.73
2019-03-21T14:16:44.501Z,3.10
2019-03-21T14:19:17.136Z,3.33
2019-03-21T14:21:48.461Z,3.50
2019-03-21T14:24:38.418Z,3.80
2019-03-21T14:27:28.316Z,3.67
2019-03-21T14:30:01.598Z,3.27
2019-03-21T14:32:52.048Z,3.43
2019-03-21T14:35:42.025Z,3.17
2019-03-21T14:38:32.499Z,3.20
2019-03-21T14:41:22.378Z,2.90
2019-03-21T14:43:53.813Z,2.97
2019-03-21T14:46:25.370Z,3.17
2019-03-21T14:49:15.296Z,2.97
2019-03-21T14:51:47.872Z,2.97
2019-03-21T14:54:19.467Z,3.00
2019-03-21T14:56:52.662Z,3.23
2019-03-21T14:59:34.935Z,2.67
2019-03-21T15:02:06.564Z,3.00
2019-03-21T15:04:37.774Z,2.50
2019-03-21T15:07:09.020Z,2.63
2019-03-21T15:09:40.920Z,2.73
2019-03-21T15:12:30.761Z,3.03
2019-03-21T15:15:02.179Z,2.63
2019-03-21T15:17:33.684Z,2.67
2019-03-21T15:20:09.714Z,3.27
2019-03-21T15:22:41.150Z,2.60
2019-03-21T15:25:12.984Z,2.70
2019-03-21T15:27:44.611Z,2.37
2019-03-21T15:30:17.895Z,2.60
2019-03-21T15:33:08.165Z,2.50
2019-03-21T15:38:49.776Z,2.63
2019-03-21T15:41:21.413Z,2.83
2019-03-21T15:44:11.538Z,2.60
2019-03-21T15:46:42.829Z,2.50
2019-03-21T15:49:32.688Z,3.07
2019-03-21T15:52:05.818Z,2.80
2019-03-21T15:54:55.702Z,2.67
2019-03-21T15:57:26.885Z,3.00
2019-03-21T16:00:04.956Z,2.80
2019-03-21T16:02:55.329Z,2.80
2019-03-21T16:05:46.129Z,3.23
2019-03-21T16:08:17.532Z,2.60
2019-03-21T16:10:49.155Z,2.73
2019-03-21T16:13:21.090Z,2.93
2019-03-21T16:15:52.847Z,2.40
2019-03-21T16:18:24.698Z,2.50
2019-03-21T16:20:56.394Z,2.30
2019-03-21T16:23:27.703Z,2.70
2019-03-21T16:25:58.935Z,2.23
2019-03-21T16:28:30.494Z,2.60
2019-03-21T16:31:07.814Z,2.70
2019-03-21T16:33:57.830Z,2.87
2019-03-21T16:36:48.135Z,2.90
2019-03-21T16:39:19.349Z,3.80
2019-03-21T16:41:52.119Z,2.50
2019-03-21T16:44:23.535Z,3.70
2019-03-21T16:47:13.779Z,3.20
2019-03-21T16:50:04.559Z,3.30
2019-03-21T16:52:35.790Z,2.83
2019-03-21T16:55:12.307Z,2.23
2019-03-21T16:57:44.114Z,2.67
2019-03-21T17:00:18.274Z,2.87
2019-03-21T17:02:49.983Z,2.50
2019-03-21T17:05:42.142Z,2.27
2019-03-21T17:08:14.155Z,2.40
2019-03-21T17:10:45.556Z,2.73
2019-03-21T17:13:18.256Z,2.53
2019-03-21T17:15:50.080Z,2.20
2019-03-21T17:18:21.379Z,2.60
2019-03-21T17:21:11.385Z,2.47
2019-03-21T17:24:01.263Z,2.80
2019-03-21T17:26:52.526Z,2.53
2019-03-21T17:29:23.789Z,3.07
2019-03-21T17:32:13.881Z,2.50
2019-03-21T17:35:03.723Z,3.00
2019-03-21T17:37:53.561Z,2.70
2019-03-21T17:40:24.769Z,2.77
2019-03-21T17:42:57.560Z,2.87
2019-03-21T17:45:29.235Z,2.47
2019-03-21T17:48:20.622Z,2.83
2019-03-21T17:50:52.438Z,2.40
2019-03-21T17:53:52.901Z,2.30
2019-03-21T17:56:24.515Z,3.10
2019-03-21T17:59:06.105Z,3.10
2019-03-21T18:01:41.744Z,3.30
2019-03-21T18:04:13.498Z,2.90
2019-03-21T18:07:04.301Z,3.03
2019-03-21T18:09:54.149Z,2.93
2019-03-21T18:12:25.529Z,2.80
2019-03-21T18:14:56.822Z,2.43
2019-03-21T18:17:28.425Z,2.90
2019-03-21T18:19:59.981Z,2.60
2019-03-21T18:22:40.862Z,2.40
2019-03-21T18:25:31.186Z,2.37
2019-03-21T18:28:02.574Z,2.20
2019-03-21T18:30:34.076Z,2.10
2019-03-21T18:33:25.540Z,2.30
2019-03-21T18:35:57.391Z,2.73
2019-03-21T18:38:56.788Z,2.60
2019-03-21T18:43:58.457Z,2.83
2019-03-21T18:46:29.741Z,2.60
2019-03-21T18:49:19.863Z,2.10
2019-03-21T18:51:52.059Z,2.10
2019-03-21T18:54:23.927Z,2.70
2019-03-21T18:56:55.656Z,2.63
2019-03-21T18:59:47.771Z,2.67
2019-03-21T19:05:30.971Z,2.50
2019-03-21T19:08:22.080Z,2.87
2019-03-21T19:10:54.702Z,3.60
2019-03-21T19:13:27.073Z,4.47
2019-03-21T19:15:58.372Z,2.70
2019-03-21T19:18:48.320Z,2.50
2019-03-21T19:21:19.800Z,2.30
2019-03-21T19:23:51.575Z,2.50
2019-03-21T19:26:23.448Z,3.37
2019-03-21T19:28:55.093Z,3.43
2019-03-21T19:31:45.646Z,3.00
2019-03-21T19:34:17.351Z,2.67
2019-03-21T19:37:07.445Z,2.60
2019-03-21T19:39:42.310Z,3.53
2019-03-21T19:42:32.412Z,2.80
2019-03-21T19:45:22.435Z,2.93
2019-03-21T19:48:12.844Z,3.13
2019-03-21T19:50:44.454Z,3.20
2019-03-21T19:53:34.446Z,4.10
2019-03-21T19:56:24.548Z,3.63
2019-03-21T19:59:06.528Z,3.30
2019-03-21T20:01:48.166Z,3.87
2019-03-21T20:04:19.674Z,3.33
2019-03-21T20:07:09.939Z,3.30
2019-03-21T20:09:41.342Z,3.87
2019-03-21T20:12:12.579Z,3.50
2019-03-21T20:15:02.649Z,4.20
2019-03-21T20:17:36.031Z,4.13
2019-03-21T20:23:15.923Z,3.47
2019-03-21T20:26:24.617Z,4.53
2019-03-21T20:29:15.434Z,3.50
2019-03-21T20:31:46.744Z,4.00
2019-03-21T20:34:18.193Z,4.00
2019-03-21T20:37:08.198Z,3.97
2019-03-21T20:39:39.911Z,4.03
2019-03-21T20:42:11.610Z,3.87
2019-03-21T20:44:43.758Z,3.40
2019-03-21T20:47:35.375Z,3.50
2019-03-21T20:50:07.391Z,3.00
2019-03-21T20:52:57.434Z,3.40
2019-03-21T20:55:53.883Z,3.50
2019-03-21T20:58:24.013Z,3.77
2019-03-21T21:00:59.614Z,3.60
2019-03-21T21:03:50.572Z,3.00
2019-03-21T21:06:42.482Z,3.43
2019-03-21T21:09:14.946Z,3.13
2019-03-21T21:12:05.593Z,4.07
2019-03-21T21:15:01.217Z,2.90
2019-03-21T21:17:32.903Z,3.10
2019-03-21T21:20:04.431Z,2.73
2019-03-21T21:22:54.663Z,3.17
2019-03-21T21:25:46.772Z,3.30
2019-03-21T21:28:37.511Z,2.90
2019-03-21T21:31:08.980Z,3.33
2019-03-21T21:33:40.939Z,2.83
2019-03-21T21:36:31.232Z,3.13
2019-03-21T21:39:24.730Z,3.63
2019-03-21T21:41:56.460Z,3.97
2019-03-21T21:44:27.636Z,3.17
2019-03-21T21:47:18.078Z,3.47
2019-03-21T21:49:52.283Z,4.20
2019-03-21T21:52:23.558Z,3.90
2019-03-21T21:55:18.804Z,3.77
2019-03-21T21:58:08.705Z,3.70
2019-03-21T22:00:40.451Z,3.63
2019-03-21T22:03:14.920Z,3.50
2019-03-21T22:05:49.078Z,3.53
2019-03-21T22:08:39.286Z,3.67
2019-03-21T22:11:29.828Z,3.67
2019-03-21T22:14:19.651Z,4.20
2019-03-21T22:17:01.337Z,4.13
2019-03-21T22:19:32.859Z,4.20
2019-03-21T22:22:04.353Z,3.60
2019-03-21T22:24:54.520Z,4.87
2019-03-21T22:27:27.035Z,3.80
2019-03-21T22:29:58.273Z,4.17
2019-03-21T22:32:29.797Z,3.60
2019-03-21T22:35:01.099Z,3.27
2019-03-21T22:37:32.420Z,3.70
2019-03-21T22:40:03.795Z,4.30
2019-03-21T22:45:25.768Z,4.13
2019-03-21T22:48:15.651Z,3.90
2019-03-21T22:50:47.129Z,3.43
2019-03-21T22:53:18.653Z,4.20
2019-03-21T22:55:49.878Z,4.10
2019-03-21T22:58:31.465Z,4.33
2019-03-21T23:00:54.936Z,3.93
2019-03-21T23:03:45.190Z,3.73
2019-03-21T23:06:16.500Z,4.13
2019-03-21T23:08:48.383Z,3.53
2019-03-21T23:11:38.799Z,4.23
2019-03-21T23:14:29.550Z,3.77
2019-03-21T23:17:03.604Z,4.00
2019-03-21T23:19:53.777Z,4.60
2019-03-21T23:22:43.836Z,4.43
2019-03-21T23:25:33.735Z,3.87
2019-03-21T23:28:05.143Z,4.13
2019-03-21T23:30:36.833Z,4.47
2019-03-21T23:33:08.260Z,4.53
2019-03-21T23:35:39.438Z,3.20
2019-03-21T23:38:11.298Z,3.90
2019-03-21T23:40:42.652Z,4.40
2019-03-21T23:43:32.851Z,4.10
2019-03-21T23:46:04.440Z,4.60
2019-03-21T23:48:54.658Z,4.23
2019-03-21T23:51:44.509Z,4.90
2019-03-21T23:54:15.743Z,4.53
2019-03-21T23:56:47.378Z,4.93
2019-03-21T23:59:29.803Z,4.60
